Time;durP1;ratioP1;P1;durP2;ratioP2;P2;SDS_P1;SDS_P2;PMS_P1;PMS_P2;Temp;Humidity;BMP_temperature;BMP_pressure;BME280_temperature;BME280_humidity;BME280_pressure;Samples;Min_cycle;Max_cycle;Signal;HPM_P1;HPM_P2
2022/09/16 00:01:45;;;;;;;1.10;0.77;;;;;;;15.07;62.43;100416.16;4949901;28;98303;-51
2022/09/16 00:04:11;;;;;;;3.37;0.90;;;;;;;15.03;62.64;100425.50;4935460;28;101635;-48
2022/09/16 00:06:36;;;;;;;2.00;0.60;;;;;;;15.03;62.66;100419.97;4944706;28;98849;-48
2022/09/16 00:09:01;;;;;;;7.40;1.37;;;;;;;15.03;62.68;100428.28;4946152;28;114639;-47
2022/09/16 00:11:27;;;;;;;1.23;0.50;;;;;;;15.00;62.57;100418.22;4938566;28;102377;-48
2022/09/16 00:13:53;;;;;;;1.67;0.60;;;;;;;14.96;62.35;100420.56;4938932;28;97229;-48
2022/09/16 00:16:21;;;;;;;1.73;0.50;;;;;;;14.95;62.62;100423.88;4942576;28;97055;-48
2022/09/16 00:18:47;;;;;;;1.50;0.50;;;;;;;14.94;62.59;100427.91;4942175;28;97335;-48
2022/09/16 00:21:12;;;;;;;4.90;0.67;;;;;;;14.93;62.69;100424.41;4946627;28;97440;-47
2022/09/16 00:23:38;;;;;;;1.43;0.60;;;;;;;14.93;62.60;100431.97;4949333;28;96822;-47
2022/09/16 00:26:04;;;;;;;2.97;0.70;;;;;;;14.92;62.74;100427.69;4948926;28;97083;-47
2022/09/16 00:28:29;;;;;;;1.07;0.57;;;;;;;14.90;62.62;100439.31;4946185;28;97660;-47
2022/09/16 00:30:59;;;;;;;4.67;0.63;;;;;;;14.89;62.64;100432.28;4944210;28;97069;-47
2022/09/16 00:33:25;;;;;;;1.23;0.60;;;;;;;14.90;62.65;100439.31;4926405;28;97123;-47
2022/09/16 00:35:50;;;;;;;2.30;1.03;;;;;;;14.88;62.64;100439.09;4943989;28;97215;-47
2022/09/16 00:38:16;;;;;;;0.60;0.40;;;;;;;14.87;62.71;100440.34;4945466;28;109914;-47
2022/09/16 00:40:46;;;;;;;0.70;0.43;;;;;;;14.87;62.59;100432.03;4938906;28;111486;-47
2022/09/16 00:43:16;;;;;;;2.00;0.73;;;;;;;14.85;62.80;100436.63;4945590;28;97343;-47
2022/09/16 00:45:44;;;;;;;0.50;0.40;;;;;;;14.84;62.98;100437.91;4938900;28;97323;-47
2022/09/16 00:48:17;;;;;;;3.87;0.93;;;;;;;14.83;62.68;100434.38;4927705;28;97730;-47
2022/09/16 00:50:47;;;;;;;4.20;0.50;;;;;;;14.83;62.81;100437.16;4932515;28;96886;-47
2022/09/16 00:53:23;;;;;;;2.43;0.93;;;;;;;14.82;62.95;100432.13;4945936;28;97042;-47
2022/09/16 00:55:52;;;;;;;2.30;0.60;;;;;;;14.79;62.65;100436.72;4947525;28;97085;-47
2022/09/16 00:58:41;;;;;;;1.40;0.70;;;;;;;14.76;63.01;100432.25;4940279;28;97604;-47
2022/09/16 01:01:07;;;;;;;1.87;0.60;;;;;;;14.76;62.69;100429.47;4948899;28;104045;-50
2022/09/16 01:03:37;;;;;;;3.53;0.50;;;;;;;14.75;62.63;100429.97;4939051;28;108896;-47
2022/09/16 01:06:03;;;;;;;1.60;0.50;;;;;;;14.75;62.68;100429.97;4947454;28;97645;-47
2022/09/16 01:08:29;;;;;;;1.73;0.60;;;;;;;14.73;62.75;100427.75;4942898;28;97582;-47
2022/09/16 01:10:54;;;;;;;1.67;0.60;;;;;;;14.71;62.78;100432.31;4939464;28;97496;-47
2022/09/16 01:13:20;;;;;;;1.33;0.40;;;;;;;14.69;62.83;100419.00;4945274;28;97316;-47
2022/09/16 01:15:59;;;;;;;1.80;0.70;;;;;;;14.68;62.91;100427.81;4935262;28;97260;-47
2022/09/16 01:18:48;;;;;;;1.53;0.50;;;;;;;14.66;63.16;100424.81;4938659;28;102109;-47
2022/09/16 01:21:54;;;;;;;1.90;0.60;;;;;;;14.64;62.70;100425.34;4938985;28;98320;-48
2022/09/16 01:24:40;;;;;;;1.23;0.60;;;;;;;14.62;62.88;100425.13;4943119;28;96816;-48
2022/09/16 01:27:14;;;;;;;2.50;0.80;;;;;;;14.61;62.98;100423.63;4945301;28;97222;-48
2022/09/16 01:30:17;;;;;;;1.90;0.60;;;;;;;14.60;63.26;100419.38;4944009;28;96714;-48
2022/09/16 01:32:51;;;;;;;1.13;0.70;;;;;;;14.59;62.82;100426.16;4939366;28;100542;-48
2022/09/16 01:35:53;;;;;;;3.13;1.10;;;;;;;14.57;63.25;100428.72;4946524;28;97067;-47
2022/09/16 01:38:25;;;;;;;1.53;0.60;;;;;;;14.56;62.90;100418.94;4939309;28;96780;-47
2022/09/16 01:41:10;;;;;;;5.00;0.90;;;;;;;14.58;62.83;100419.16;4945041;28;97299;-47
2022/09/16 01:43:56;;;;;;;0.90;0.50;;;;;;;14.53;62.86;100422.75;4939848;28;97471;-47
2022/09/16 01:46:47;;;;;;;1.70;0.70;;;;;;;14.46;63.04;100417.81;4939445;28;97086;-48
2022/09/16 01:49:25;;;;;;;2.10;0.53;;;;;;;14.42;62.97;100422.16;4945494;28;97069;-48
2022/09/16 01:52:21;;;;;;;1.00;0.60;;;;;;;14.40;63.09;100430.22;4938439;28;100648;-47
2022/09/16 01:54:55;;;;;;;0.90;0.60;;;;;;;14.38;62.99;100433.53;4923502;28;102923;-47
2022/09/16 01:57:38;;;;;;;0.80;0.50;;;;;;;14.38;63.08;100416.91;4948063;28;97518;-47
2022/09/16 02:00:10;;;;;;;2.43;0.90;;;;;;;14.39;63.06;100415.66;4941297;28;96992;-47
2022/09/16 02:02:43;;;;;;;4.07;1.03;;;;;;;14.42;63.01;100419.38;4938711;28;97263;-47
2022/09/16 02:05:15;;;;;;;1.27;0.60;;;;;;;14.42;63.06;100425.66;4937429;28;97549;-47
2022/09/16 02:07:48;;;;;;;1.33;0.80;;;;;;;14.44;63.13;100425.16;4930653;28;98185;-45
2022/09/16 02:10:23;;;;;;;2.40;0.57;;;;;;;14.42;63.00;100428.44;4945372;28;96879;-49
2022/09/16 02:12:51;;;;;;;3.43;1.00;;;;;;;14.39;62.98;100426.72;4942059;28;97263;-45
2022/09/16 02:15:21;;;;;;;2.20;1.10;;;;;;;14.38;62.98;100422.47;4948679;28;97395;-46
2022/09/16 02:18:01;;;;;;;2.60;0.87;;;;;;;14.38;63.03;100418.94;4929700;28;97855;-46
2022/09/16 02:20:30;;;;;;;3.80;0.70;;;;;;;14.35;63.00;100420.72;4939421;28;98216;-48
2022/09/16 02:23:08;;;;;;;2.30;1.00;;;;;;;14.36;63.21;100419.47;4943674;28;98557;-47
2022/09/16 02:25:37;;;;;;;2.67;1.13;;;;;;;14.35;63.03;100420.72;4933040;28;98705;-46
2022/09/16 02:28:11;;;;;;;3.87;0.80;;;;;;;14.35;63.04;100420.72;4946468;28;96795;-46
2022/09/16 02:30:41;;;;;;;1.13;0.83;;;;;;;14.35;63.02;100420.72;4924969;28;97375;-47
2022/09/16 02:33:09;;;;;;;1.40;0.70;;;;;;;14.34;62.97;100416.47;4942187;28;97712;-45
2022/09/16 02:35:37;;;;;;;0.83;0.83;;;;;;;14.33;63.10;100411.47;4943200;28;97373;-47
2022/09/16 02:38:13;;;;;;;1.77;1.30;;;;;;;14.33;63.15;100414.97;4943877;28;97181;-45
2022/09/16 02:40:49;;;;;;;3.70;1.30;;;;;;;14.34;63.13;100413.72;4945953;28;96791;-48
2022/09/16 02:43:15;;;;;;;4.63;1.20;;;;;;;14.33;62.93;100420.50;4941888;28;98250;-47
2022/09/16 02:45:53;;;;;;;1.87;1.10;;;;;;;14.34;63.17;100424.03;4941164;28;97592;-46
2022/09/16 02:48:27;;;;;;;1.00;0.70;;;;;;;14.28;63.03;100419.28;4943717;28;96920;-49
2022/09/16 02:51:05;;;;;;;1.07;1.07;;;;;;;14.25;63.07;100420.34;4943871;28;96988;-47
2022/09/16 02:53:55;;;;;;;1.33;0.90;;;;;;;14.24;63.49;100423.63;4938830;28;97347;-45
2022/09/16 02:56:28;;;;;;;2.13;1.10;;;;;;;14.24;63.31;100426.41;4945186;28;100379;-47
2022/09/16 02:58:53;;;;;;;2.13;1.03;;;;;;;14.28;63.12;100419.28;4925274;28;99366;-47
2022/09/16 03:01:20;;;;;;;1.83;1.17;;;;;;;14.32;63.16;100423.81;4932519;28;96940;-47
2022/09/16 03:03:46;;;;;;;1.50;1.00;;;;;;;14.32;63.27;100427.31;4933740;28;97500;-46
2022/09/16 03:06:24;;;;;;;2.43;1.07;;;;;;;14.32;63.49;100423.81;4939806;28;97393;-48
2022/09/16 03:08:51;;;;;;;2.07;1.20;;;;;;;14.34;63.22;100424.78;4947142;28;96835;-48
2022/09/16 03:11:47;;;;;;;2.20;1.17;;;;;;;14.37;63.60;100426.50;4946081;28;96871;-48
2022/09/16 03:14:35;;;;;;;3.20;0.90;;;;;;;14.36;63.57;100422.22;4944759;28;100657;-48
2022/09/16 03:17:10;;;;;;;2.40;1.10;;;;;;;14.38;63.40;100427.25;4944254;28;100263;-49
2022/09/16 03:19:49;;;;;;;1.07;0.97;;;;;;;14.37;63.47;100414.69;4947927;28;100748;-48
2022/09/16 03:22:29;;;;;;;2.83;1.00;;;;;;;14.38;63.37;100411.38;4944860;28;97273;-49
2022/09/16 03:25:00;;;;;;;2.60;1.27;;;;;;;14.40;63.44;100410.84;4939750;28;97550;-48
2022/09/16 03:27:35;;;;;;;2.03;1.00;;;;;;;14.41;63.40;100404.06;4942803;28;98643;-48
2022/09/16 03:30:09;;;;;;;1.53;1.00;;;;;;;14.42;63.48;100416.59;4941198;28;96827;-47
2022/09/16 03:33:18;;;;;;;1.40;0.93;;;;;;;14.40;63.67;100413.63;4938052;28;97294;-48
2022/09/16 03:35:47;;;;;;;1.30;1.20;;;;;;;14.40;63.42;100413.63;4942255;28;102104;-48
2022/09/16 03:38:13;;;;;;;2.00;1.03;;;;;;;14.40;63.40;100417.16;4923309;28;99790;-47
2022/09/16 03:40:41;;;;;;;3.37;1.10;;;;;;;14.43;63.41;100415.34;4912196;28;96688;-46
2022/09/16 03:43:14;;;;;;;1.80;1.00;;;;;;;14.43;63.50;100412.59;4932393;28;97626;-47
2022/09/16 03:45:41;;;;;;;3.43;1.40;;;;;;;14.40;63.44;100408.84;4933507;28;98995;-46
2022/09/16 03:48:08;;;;;;;2.00;1.33;;;;;;;14.41;63.28;100415.13;4919129;28;98348;-46
2022/09/16 03:50:34;;;;;;;5.03;1.40;;;;;;;14.41;63.52;100409.59;4939091;28;97415;-44
2022/09/16 03:53:00;;;;;;;1.00;0.90;;;;;;;14.41;63.61;100410.34;4941403;28;97458;-45
2022/09/16 03:55:25;;;;;;;5.53;1.50;;;;;;;14.42;63.56;100406.28;4945328;28;97141;-49
2022/09/16 03:57:55;;;;;;;3.53;1.07;;;;;;;14.45;63.81;100405.25;4941789;28;97864;-48
2022/09/16 04:00:21;;;;;;;2.27;1.10;;;;;;;14.46;63.49;100412.28;4945523;28;97341;-48
2022/09/16 04:02:47;;;;;;;1.40;1.30;;;;;;;14.48;63.52;100409.72;4938724;28;97513;-49
2022/09/16 04:05:12;;;;;;;2.20;1.10;;;;;;;14.48;63.40;100423.56;4946423;28;114950;-47
2022/09/16 04:07:37;;;;;;;1.37;1.10;;;;;;;14.50;63.47;100418.28;4938638;28;97008;-49
2022/09/16 04:10:04;;;;;;;2.23;1.20;;;;;;;14.51;63.50;100419.00;4932265;28;97099;-46
2022/09/16 04:12:30;;;;;;;2.63;1.23;;;;;;;14.51;63.58;100419.00;4937323;28;97353;-46
2022/09/16 04:14:56;;;;;;;2.47;1.60;;;;;;;14.50;63.47;100417.53;4934683;28;98197;-50
2022/09/16 04:17:21;;;;;;;1.63;1.23;;;;;;;14.50;63.58;100415.50;4930685;28;116440;-45
2022/09/16 04:19:46;;;;;;;1.40;1.20;;;;;;;14.49;63.61;100405.69;4945851;28;97401;-49
2022/09/16 04:22:11;;;;;;;1.90;1.80;;;;;;;14.50;63.67;100409.97;4944048;28;100504;-48
2022/09/16 04:24:37;;;;;;;2.20;1.33;;;;;;;14.50;63.70;100407.22;4923317;28;115138;-46
2022/09/16 04:27:02;;;;;;;4.53;1.20;;;;;;;14.50;63.59;100409.97;4939365;28;108172;-47
2022/09/16 04:29:27;;;;;;;1.93;1.30;;;;;;;14.51;63.58;100403.16;4926291;28;97137;-45
2022/09/16 04:31:54;;;;;;;2.57;1.13;;;;;;;14.53;63.60;100395.06;4937104;28;97053;-46
2022/09/16 04:34:19;;;;;;;1.30;1.07;;;;;;;14.54;63.71;100393.03;4936431;28;97381;-48
2022/09/16 04:36:44;;;;;;;1.80;1.17;;;;;;;14.55;63.63;100397.28;4946742;28;111694;-49
2022/09/16 04:39:11;;;;;;;2.30;1.17;;;;;;;14.58;63.61;100397.00;4943956;28;97360;-46
2022/09/16 04:41:37;;;;;;;1.43;1.33;;;;;;;14.61;63.54;100400.75;4947645;28;97587;-46
2022/09/16 04:44:02;;;;;;;1.07;1.07;;;;;;;14.60;63.60;100400.00;4944404;28;98705;-46
2022/09/16 04:46:29;;;;;;;1.30;1.13;;;;;;;14.61;63.65;100400.75;4950185;28;97285;-46
2022/09/16 04:48:56;;;;;;;2.93;1.43;;;;;;;14.60;63.63;100394.47;4947086;28;96733;-49
2022/09/16 04:51:22;;;;;;;1.10;1.10;;;;;;;14.58;63.65;100387.94;4944021;28;97147;-51
2022/09/16 04:53:48;;;;;;;1.43;1.00;;;;;;;14.57;63.66;100392.72;4946721;28;96805;-47
2022/09/16 04:56:16;;;;;;;1.43;1.33;;;;;;;14.56;63.70;100394.03;4947858;28;96936;-48
2022/09/16 04:58:44;;;;;;;1.70;1.60;;;;;;;14.57;63.69;100395.50;4946714;28;97523;-49
2022/09/16 05:01:12;;;;;;;1.27;1.00;;;;;;;14.57;63.67;100389.25;4941180;28;97060;-47
2022/09/16 05:03:42;;;;;;;1.63;1.53;;;;;;;14.53;63.60;100391.53;4946317;28;97408;-50
2022/09/16 05:06:19;;;;;;;1.93;0.90;;;;;;;14.54;63.85;100384.75;4946963;28;97355;-49
2022/09/16 05:08:45;;;;;;;3.43;1.10;;;;;;;14.53;63.71;100392.28;4945660;28;97226;-47
2022/09/16 05:11:16;;;;;;;1.93;1.37;;;;;;;14.53;63.78;100388.78;4945717;28;97458;-48
2022/09/16 05:13:42;;;;;;;2.97;1.20;;;;;;;14.52;63.55;100381.75;4949715;28;104160;-48
2022/09/16 05:16:10;;;;;;;7.30;1.00;;;;;;;14.51;63.78;100400.38;4946396;28;97402;-47
2022/09/16 05:18:38;;;;;;;1.30;1.03;;;;;;;14.50;63.58;100389.84;4936929;28;97226;-45
2022/09/16 05:21:05;;;;;;;2.27;1.00;;;;;;;14.49;63.61;100402.19;4932524;28;96661;-47
2022/09/16 05:23:33;;;;;;;1.57;0.83;;;;;;;14.47;63.61;100390.88;4943907;28;98423;-46
2022/09/16 05:26:08;;;;;;;1.83;1.03;;;;;;;14.46;63.69;100383.88;4934740;28;96961;-46
2022/09/16 05:28:34;;;;;;;2.10;1.00;;;;;;;14.43;63.80;100388.44;4930399;28;97446;-48
2022/09/16 05:31:11;;;;;;;2.93;1.03;;;;;;;14.45;63.88;100387.88;4936955;28;96813;-48
2022/09/16 05:33:41;;;;;;;2.77;1.03;;;;;;;14.44;63.74;100381.59;4934861;28;102736;-47
2022/09/16 05:36:17;;;;;;;2.37;0.93;;;;;;;14.47;63.98;100382.56;4939750;28;97350;-49
2022/09/16 05:38:42;;;;;;;1.90;0.97;;;;;;;14.45;63.93;100379.59;4929190;28;97187;-50
2022/09/16 05:41:08;;;;;;;2.17;1.03;;;;;;;14.45;63.72;100379.59;4929106;28;97015;-45
2022/09/16 05:43:35;;;;;;;2.50;1.30;;;;;;;14.48;63.76;100384.81;4943006;28;96873;-45
2022/09/16 05:46:01;;;;;;;1.53;0.80;;;;;;;14.48;63.84;100387.56;4938938;28;96877;-48
2022/09/16 05:48:27;;;;;;;2.60;0.90;;;;;;;14.50;63.72;100378.78;4936909;28;97243;-48
2022/09/16 05:50:57;;;;;;;3.13;1.43;;;;;;;14.50;63.79;100387.81;4938605;28;96776;-47
2022/09/16 05:53:24;;;;;;;1.87;1.20;;;;;;;14.53;63.77;100389.53;4934608;28;97828;-47
2022/09/16 05:56:17;;;;;;;1.20;1.00;;;;;;;14.56;64.02;100393.28;4934580;28;96813;-48
2022/09/16 05:58:43;;;;;;;1.30;1.20;;;;;;;14.58;63.77;100388.72;4944884;28;96926;-49
2022/09/16 06:01:13;;;;;;;1.30;1.00;;;;;;;14.61;63.84;100390.41;4941548;28;96930;-48
2022/09/16 06:03:39;;;;;;;3.80;1.50;;;;;;;14.66;63.82;100392.34;4945280;28;96905;-48
2022/09/16 06:06:18;;;;;;;1.20;0.90;;;;;;;14.68;63.85;100389.78;4945846;28;97332;-47
2022/09/16 06:08:44;;;;;;;2.60;1.27;;;;;;;14.69;63.71;100391.31;4949174;28;97873;-48
2022/09/16 06:11:10;;;;;;;1.17;1.07;;;;;;;14.73;63.73;100391.00;4945114;28;97063;-48
2022/09/16 06:13:37;;;;;;;1.27;1.27;;;;;;;14.74;63.81;100396.00;4939136;28;97955;-48
2022/09/16 06:16:04;;;;;;;1.47;1.20;;;;;;;14.74;63.88;100393.22;4938823;28;97454;-48
2022/09/16 06:18:30;;;;;;;3.07;0.97;;;;;;;14.75;63.86;100400.28;4937447;28;96975;-48
2022/09/16 06:20:56;;;;;;;1.20;0.93;;;;;;;14.75;63.73;100397.50;4945653;28;97074;-48
2022/09/16 06:23:22;;;;;;;2.27;1.40;;;;;;;14.74;63.81;100386.97;4931171;28;98708;-48
2022/09/16 06:25:47;;;;;;;1.30;1.20;;;;;;;14.75;63.84;100389.19;4931918;28;98704;-48
2022/09/16 06:28:13;;;;;;;1.43;1.17;;;;;;;14.77;63.67;100391.44;4950050;28;97268;-48
2022/09/16 06:30:40;;;;;;;3.83;1.20;;;;;;;14.79;63.76;100397.94;4936822;28;96837;-47
2022/09/16 06:33:05;;;;;;;2.37;0.90;;;;;;;14.82;63.58;100393.38;4933687;28;99091;-48
2022/09/16 06:35:33;;;;;;;6.23;0.97;;;;;;;14.83;63.72;100392.81;4932331;28;98341;-48
2022/09/16 06:37:58;;;;;;;3.07;1.20;;;;;;;14.83;63.70;100386.56;4949739;28;97131;-48
2022/09/16 06:40:24;;;;;;;1.00;0.93;;;;;;;14.83;63.74;100395.59;4940245;28;97011;-46
2022/09/16 06:42:52;;;;;;;2.50;0.70;;;;;;;14.85;63.62;100398.59;4934297;28;96813;-48
2022/09/16 06:45:18;;;;;;;2.57;1.20;;;;;;;14.87;63.69;100392.53;4927316;28;97301;-48
2022/09/16 06:47:43;;;;;;;3.63;1.10;;;;;;;14.90;63.63;100391.47;4930862;28;96817;-48
2022/09/16 06:50:08;;;;;;;0.90;0.90;;;;;;;14.93;63.53;100388.41;4939742;28;96888;-47
2022/09/16 06:52:34;;;;;;;2.90;1.00;;;;;;;14.95;63.57;100385.84;4926803;28;97911;-48
2022/09/16 06:55:00;;;;;;;1.20;0.73;;;;;;;14.99;63.72;100391.06;4927359;28;97190;-47
2022/09/16 06:57:25;;;;;;;1.87;0.80;;;;;;;15.01;63.63;100392.03;4946336;28;96931;-48
2022/09/16 06:59:51;;;;;;;1.17;0.90;;;;;;;15.06;63.36;100409.09;4947420;28;96747;-48
2022/09/16 07:02:18;;;;;;;1.53;0.80;;;;;;;15.09;63.51;100397.72;4948243;28;98472;-48
2022/09/16 07:04:44;;;;;;;1.10;0.80;;;;;;;15.13;63.51;100398.16;4927346;28;97346;-48
2022/09/16 07:07:09;;;;;;;1.60;0.80;;;;;;;15.15;63.53;100394.84;4932273;28;97526;-48
2022/09/16 07:09:35;;;;;;;1.20;0.60;;;;;;;15.13;63.60;100395.38;4938785;28;96864;-48
2022/09/16 07:12:01;;;;;;;1.00;0.83;;;;;;;15.16;63.62;100399.13;4953707;28;97086;-48
2022/09/16 07:14:27;;;;;;;6.67;1.10;;;;;;;15.22;63.52;100405.31;4941761;28;96927;-48
2022/09/16 07:16:52;;;;;;;0.90;0.90;;;;;;;15.24;63.60;100397.19;4942842;28;97753;-47
2022/09/16 07:19:18;;;;;;;1.73;0.73;;;;;;;15.26;63.52;100400.19;4931190;28;96872;-47
2022/09/16 07:21:43;;;;;;;3.70;0.97;;;;;;;15.30;63.46;100404.13;4937782;28;97308;-47
2022/09/16 07:24:12;;;;;;;2.97;1.20;;;;;;;15.36;63.32;100395.72;4929035;28;98647;-48
2022/09/16 07:26:39;;;;;;;2.83;0.90;;;;;;;15.37;63.45;100403.53;4935055;28;97036;-48
2022/09/16 07:29:06;;;;;;;1.10;0.97;;;;;;;15.44;63.47;100399.41;4948772;28;97076;-47
2022/09/16 07:31:34;;;;;;;1.67;0.70;;;;;;;15.49;63.38;100390.22;4928352;28;97631;-47
2022/09/16 07:34:01;;;;;;;3.80;0.73;;;;;;;15.53;63.34;100398.97;4947282;28;96683;-47
2022/09/16 07:36:32;;;;;;;4.90;1.03;;;;;;;15.56;63.31;100386.81;4935844;28;96956;-46
2022/09/16 07:38:57;;;;;;;1.07;0.87;;;;;;;15.62;63.27;100393.75;4933184;28;96776;-48
2022/09/16 07:41:26;;;;;;;2.60;0.70;;;;;;;15.68;63.26;100399.19;4932685;28;98370;-48
2022/09/16 07:43:53;;;;;;;0.63;0.50;;;;;;;15.73;63.14;100401.84;4935169;28;101542;-46
2022/09/16 07:46:19;;;;;;;1.80;0.70;;;;;;;15.80;63.10;100402.47;4934468;28;96805;-48
2022/09/16 07:48:47;;;;;;;0.60;0.60;;;;;;;15.84;63.07;100398.09;4930376;28;96796;-47
2022/09/16 07:51:15;;;;;;;3.23;0.87;;;;;;;15.90;63.07;100404.28;4937246;28;98603;-48
2022/09/16 07:53:41;;;;;;;0.50;0.50;;;;;;;15.92;62.90;100409.31;4945418;28;97445;-50
2022/09/16 07:56:15;;;;;;;2.30;0.80;;;;;;;15.95;63.16;100406.19;4933447;28;97425;-48
2022/09/16 07:58:42;;;;;;;3.27;0.80;;;;;;;15.98;62.95;100418.25;4934829;28;97497;-49
2022/09/16 08:01:08;;;;;;;3.37;0.70;;;;;;;16.02;62.77;100413.88;4928092;28;97551;-46
2022/09/16 08:03:35;;;;;;;3.10;1.33;;;;;;;16.06;62.60;100399.69;4945106;28;97294;-47
2022/09/16 08:06:02;;;;;;;1.23;0.67;;;;;;;16.12;62.39;100403.81;4942816;28;97402;-47
2022/09/16 08:08:29;;;;;;;1.73;0.57;;;;;;;16.18;62.32;100407.25;4944635;28;96936;-47
2022/09/16 08:10:56;;;;;;;1.13;0.57;;;;;;;16.24;62.14;100398.78;4947594;28;98917;-47
2022/09/16 08:13:21;;;;;;;2.30;0.60;;;;;;;16.29;61.82;100400.72;4939233;28;97685;-48
2022/09/16 08:15:47;;;;;;;0.50;0.40;;;;;;;16.33;61.96;100396.31;4935295;28;96808;-47
2022/09/16 08:18:12;;;;;;;3.33;0.70;;;;;;;16.39;61.69;100396.94;4937174;28;97096;-48
2022/09/16 08:20:37;;;;;;;1.77;0.60;;;;;;;16.49;61.58;100397.22;4949844;28;97528;-48
2022/09/16 08:23:03;;;;;;;1.80;0.50;;;;;;;16.55;61.62;100400.66;4936014;28;97395;-48
2022/09/16 08:25:28;;;;;;;0.70;0.40;;;;;;;16.64;61.42;100399.44;4928124;28;97211;-47
2022/09/16 08:27:53;;;;;;;0.80;0.53;;;;;;;16.74;61.15;100397.69;4929875;28;96864;-49
2022/09/16 08:30:20;;;;;;;4.20;0.70;;;;;;;16.85;61.04;100402.97;4941328;28;113297;-48
2022/09/16 08:32:45;;;;;;;0.50;0.30;;;;;;;16.97;60.87;100407.72;4942062;28;97395;-48
2022/09/16 08:35:10;;;;;;;1.27;0.50;;;;;;;17.09;60.42;100397.81;4946823;28;96863;-47
2022/09/16 08:37:36;;;;;;;0.90;0.53;;;;;;;17.19;60.17;100395.28;4941558;28;97726;-47
2022/09/16 08:40:04;;;;;;;1.57;1.00;;;;;;;17.33;59.81;100398.72;4938558;28;96828;-46
2022/09/16 08:42:51;;;;;;;0.80;0.53;;;;;;;17.46;59.74;100396.63;4945696;28;97473;-47
2022/09/16 08:45:27;;;;;;;1.63;0.50;;;;;;;17.64;58.93;100404.00;4947380;28;97241;-47
2022/09/16 08:47:55;;;;;;;1.47;0.60;;;;;;;17.78;58.99;100393.47;4941199;28;97561;-47
2022/09/16 08:50:32;;;;;;;7.60;0.87;;;;;;;17.85;58.60;100396.31;4941890;28;103334;-47
2022/09/16 08:53:01;;;;;;;2.73;0.50;;;;;;;17.98;58.94;100389.88;4949742;28;101243;-53
2022/09/16 08:55:31;;;;;;;5.13;0.63;;;;;;;18.07;58.60;100388.59;4948082;28;97354;-47
2022/09/16 08:58:09;;;;;;;4.23;0.60;;;;;;;18.19;57.96;100387.00;4948322;28;97031;-47
2022/09/16 09:00:36;;;;;;;2.10;0.50;;;;;;;18.28;58.47;100380.91;4947036;28;101692;-47
2022/09/16 09:03:17;;;;;;;2.83;0.70;;;;;;;18.41;57.74;100383.53;4947355;28;97776;-47
2022/09/16 09:05:50;;;;;;;3.70;0.90;;;;;;;18.45;57.20;100379.13;4937154;28;97204;-47
2022/09/16 09:08:39;;;;;;;3.60;0.80;;;;;;;18.48;56.94;100380.03;4942288;28;96820;-47
2022/09/16 09:11:05;;;;;;;0.67;0.50;;;;;;;18.57;57.99;100385.84;4927516;28;98555;-47
2022/09/16 09:13:52;;;;;;;3.07;0.93;;;;;;;18.69;56.81;100391.81;4930810;28;97328;-47
2022/09/16 09:16:41;;;;;;;0.80;0.60;;;;;;;18.62;56.21;100390.50;4935459;28;97334;-46
2022/09/16 09:19:11;;;;;;;2.10;0.63;;;;;;;18.58;57.47;100389.38;4939482;28;97035;-47
2022/09/16 09:22:02;;;;;;;0.90;0.60;;;;;;;18.56;55.83;100378.03;4926306;28;99528;-47
2022/09/16 09:24:54;;;;;;;3.77;0.80;;;;;;;18.56;55.39;100386.41;4936382;28;101420;-48
2022/09/16 09:27:39;;;;;;;1.13;0.53;;;;;;;18.68;56.43;100387.50;4944934;28;97016;-47
2022/09/16 09:30:16;;;;;;;1.47;0.60;;;;;;;18.83;55.84;100404.25;4930922;28;96877;-47
2022/09/16 09:32:55;;;;;;;0.70;0.47;;;;;;;18.88;56.52;100394.22;4931814;28;99942;-47
2022/09/16 09:36:01;;;;;;;4.43;0.67;;;;;;;18.92;54.52;100389.78;4936686;28;97137;-48
2022/09/16 09:39:02;;;;;;;0.87;0.50;;;;;;;18.84;54.73;100391.81;4943065;28;98378;-47
2022/09/16 09:41:41;;;;;;;2.83;0.67;;;;;;;18.90;54.83;100372.88;4933899;28;97051;-47
2022/09/16 09:44:32;;;;;;;1.77;0.50;;;;;;;18.99;53.44;100374.34;4945498;28;101335;-46
2022/09/16 09:47:02;;;;;;;2.13;0.60;;;;;;;18.97;55.41;100376.94;4946145;28;102816;-47
2022/09/16 09:49:32;;;;;;;3.10;0.70;;;;;;;18.95;54.89;100371.19;4951027;28;96926;-47
2022/09/16 09:52:11;;;;;;;2.73;0.77;;;;;;;18.96;53.88;100373.41;4932677;28;97008;-47
2022/09/16 09:54:37;;;;;;;1.27;0.70;;;;;;;18.97;55.33;100366.56;4944766;28;97528;-46
2022/09/16 09:57:40;;;;;;;3.87;0.70;;;;;;;18.94;52.94;100364.88;4946210;28;97910;-46
2022/09/16 10:00:16;;;;;;;4.03;0.60;;;;;;;18.93;53.42;100368.97;4945755;28;97102;-47
2022/09/16 10:02:44;;;;;;;2.93;0.80;;;;;;;18.88;54.78;100369.88;4944572;28;97141;-47
2022/09/16 10:05:25;;;;;;;2.27;0.60;;;;;;;18.81;53.22;100367.09;4943999;28;97837;-47
2022/09/16 10:07:54;;;;;;;2.93;0.73;;;;;;;18.76;54.73;100366.00;4932164;28;98816;-48
2022/09/16 10:10:22;;;;;;;1.83;0.50;;;;;;;18.75;54.58;100386.03;4936019;28;97510;-47
2022/09/16 10:12:48;;;;;;;2.60;0.80;;;;;;;18.76;54.45;100366.00;4941524;28;96887;-47
2022/09/16 10:15:28;;;;;;;3.80;0.80;;;;;;;18.76;53.47;100371.56;4942303;28;97742;-47
2022/09/16 10:17:57;;;;;;;1.87;0.90;;;;;;;18.82;54.71;100371.38;4924759;28;97565;-47
2022/09/16 10:20:31;;;;;;;1.83;0.77;;;;;;;18.94;54.01;100364.13;4930873;28;96884;-47
2022/09/16 10:23:11;;;;;;;4.83;0.97;;;;;;;19.05;51.44;100356.13;4933662;28;97522;-47
2022/09/16 10:25:37;;;;;;;2.00;0.83;;;;;;;19.18;53.70;100361.50;4936912;28;97504;-48
2022/09/16 10:28:15;;;;;;;5.10;1.00;;;;;;;19.26;53.47;100356.66;4944761;28;97306;-47
2022/09/16 10:30:54;;;;;;;3.73;1.03;;;;;;;19.37;53.11;100356.31;4934882;28;97267;-47
2022/09/16 10:33:25;;;;;;;2.57;0.70;;;;;;;19.44;52.92;100361.13;4947960;28;97232;-47
2022/09/16 10:35:56;;;;;;;3.50;0.87;;;;;;;19.54;52.86;100346.59;4939371;28;102139;-47
2022/09/16 10:38:25;;;;;;;2.30;0.67;;;;;;;19.60;52.39;100355.50;4940800;28;101659;-47
2022/09/16 10:41:07;;;;;;;2.93;0.70;;;;;;;19.57;51.72;100346.22;4936827;28;97219;-47
2022/09/16 10:43:33;;;;;;;3.60;0.83;;;;;;;19.68;52.50;100361.84;4944126;28;97722;-47
2022/09/16 10:45:59;;;;;;;5.73;0.80;;;;;;;19.78;52.04;100355.09;4946197;28;97960;-47
2022/09/16 10:48:27;;;;;;;4.73;0.97;;;;;;;19.89;51.39;100353.94;4943314;28;97292;-47
2022/09/16 10:50:59;;;;;;;4.20;0.77;;;;;;;19.97;50.70;100343.47;4947086;28;96818;-47
2022/09/16 10:53:39;;;;;;;3.80;1.30;;;;;;;19.99;48.86;100340.84;4944964;28;96929;-46
2022/09/16 10:56:14;;;;;;;5.13;1.00;;;;;;;19.96;50.70;100345.50;4949357;28;101823;-47
2022/09/16 10:58:40;;;;;;;2.67;0.90;;;;;;;19.92;50.53;100341.66;4945067;28;100388;-47
2022/09/16 11:01:05;;;;;;;1.97;0.70;;;;;;;19.88;50.62;100339.22;4926316;28;97507;-47
2022/09/16 11:03:52;;;;;;;2.70;0.83;;;;;;;19.95;49.65;100338.47;4936334;28;96981;-48
2022/09/16 11:06:44;;;;;;;3.63;1.53;;;;;;;20.05;48.66;100327.44;4939917;28;102562;-47
2022/09/16 11:09:34;;;;;;;2.37;0.80;;;;;;;20.20;48.06;100332.94;4940820;28;101663;-48
2022/09/16 11:12:02;;;;;;;2.30;0.77;;;;;;;20.25;50.02;100331.28;4932917;28;97152;-48
2022/09/16 11:15:04;;;;;;;4.83;0.83;;;;;;;20.25;48.02;100317.31;4936059;28;97593;-47
2022/09/16 11:17:59;;;;;;;3.50;0.87;;;;;;;20.32;47.59;100325.63;4941681;28;101688;-47
2022/09/16 11:20:43;;;;;;;2.40;0.80;;;;;;;20.18;47.74;100322.31;4934916;28;100314;-48
2022/09/16 11:23:26;;;;;;;3.97;0.73;;;;;;;20.07;49.81;100324.81;4933663;28;96740;-47
2022/09/16 11:26:12;;;;;;;2.17;0.80;;;;;;;20.18;49.51;100325.13;4946271;28;97227;-47
2022/09/16 11:28:49;;;;;;;2.43;0.90;;;;;;;20.34;49.34;100313.88;4947111;28;100658;-49
2022/09/16 11:31:23;;;;;;;3.87;0.70;;;;;;;20.44;49.37;100317.56;4925672;28;101368;-46
2022/09/16 11:33:59;;;;;;;2.37;0.97;;;;;;;20.59;48.53;100307.00;4944764;28;97217;-45
2022/09/16 11:37:02;;;;;;;1.90;0.70;;;;;;;20.73;46.91;100310.97;4937835;28;97253;-46
2022/09/16 11:39:49;;;;;;;0.80;0.53;;;;;;;20.90;47.49;100311.00;4945070;28;100519;-47
2022/09/16 11:42:35;;;;;;;2.80;0.60;;;;;;;21.09;46.30;100313.31;4937401;28;97152;-47
2022/09/16 11:45:21;;;;;;;3.00;0.90;;;;;;;21.36;47.87;100305.03;4933802;28;97329;-45
2022/09/16 11:48:02;;;;;;;2.00;1.00;;;;;;;21.59;46.00;100308.31;4951982;28;97264;-48